Weather reports worldwide

Advertisment
Lekeitio, Spain (8024): temperature & dewpoint: 18.06.2019 16:00:00 - 24.06.2019 16:00:00 (CEST)Lekeitio, Spain (8024): wind speed & gusts: 18.06.2019 16:00:00 - 24.06.2019 16:00:00 (CEST)Lekeitio, Spain (8024): wind direction: 18.06.2019 16:00:00 - 24.06.2019 16:00:00 (CEST)
Date & Time tt [°C] td [°C] ff [km/h] ff [kn] fx [km/h] fx [kn] dd
24.06.2019 16:00:00 - - - - - - -
24.06.2019 15:00:00 18,5 16,8 11 6 16 9 NW
24.06.2019 14:00:00 19,4 17,5 6 3 10 5 SE
24.06.2019 13:00:00 18,1 16,8 5 3 21 12 NNW
24.06.2019 12:00:00 18,2 16,9 16 9 20 11 NW
24.06.2019 11:00:00 17,7 16,4 14 8 21 11 NW
24.06.2019 10:00:00 17,7 16,2 11 6 16 9 WNW
24.06.2019 09:00:00 17,3 15,8 6 4 9 5 WNW
24.06.2019 08:00:00 17,1 15,8 7 4 14 8 S
24.06.2019 07:00:00 16,3 15,0 9 5 13 7 S
24.06.2019 06:00:00 16,6 15,5 2 1 21 11 W
24.06.2019 05:00:00 16,5 15,5 16 9 32 17 WNW
24.06.2019 04:00:00 16,3 15,7 26 14 36 19 WNW
24.06.2019 03:00:00 16,4 15,6 18 10 34 19 W
24.06.2019 02:00:00 16,7 15,6 3 2 15 8 WSW
24.06.2019 01:00:00 16,9 15,8 1 1 9 5 WNW
24.06.2019 00:00:00 16,9 15,8 6 3 17 9 W
23.06.2019 23:00:00 16,8 15,7 14 7 23 12 WNW
23.06.2019 22:00:00 17,3 15,8 14 8 24 13 WNW
23.06.2019 21:00:00 17,9 15,9 12 7 18 10 WNW
23.06.2019 20:00:00 18,6 15,7 8 5 14 7 WNW
23.06.2019 19:00:00 19,1 15,8 4 2 18 10 N
23.06.2019 18:00:00 19,1 15,4 14 8 28 15 NW
23.06.2019 17:00:00 18,3 16,6 24 13 42 23 NW
23.06.2019 16:00:00 18,2 15,8 30 16 41 22 WNW
23.06.2019 15:00:00 18,6 14,9 24 13 41 22 WNW
23.06.2019 14:00:00 19,9 16,2 11 6 18 10 NW
23.06.2019 13:00:00 22,4 18,0 2 1 13 7 E
23.06.2019 12:00:00 21,5 16,9 3 1 16 9 E
23.06.2019 11:00:00 20,8 15,6 9 5 19 11 WNW
23.06.2019 10:00:00 19,5 15,2 14 8 - - NW
23.06.2019 09:00:00 19,5 15,4 20 11 53 29 NW
23.06.2019 08:00:00 19,3 15,0 27 15 54 29 WNW
23.06.2019 07:00:00 24,3 12,6 15 8 31 17 S
23.06.2019 06:00:00 24,3 12,6 22 12 32 17 S
23.06.2019 05:00:00 19,2 15,5 11 6 25 14 SE
23.06.2019 04:00:00 19,3 16,9 14 8 25 14 SE
23.06.2019 03:00:00 18,8 16,9 10 6 18 10 SSE
23.06.2019 02:00:00 18,2 16,5 14 8 18 10 S
23.06.2019 01:00:00 18,8 16,6 1 1 14 7 S
23.06.2019 00:00:00 19,4 16,4 9 5 13 7 SSE
22.06.2019 23:00:00 20,7 16,5 7 4 15 8 SE
22.06.2019 22:00:00 20,6 16,2 12 6 19 10 SSE
22.06.2019 21:00:00 21,2 16,2 13 7 19 11 SSE
22.06.2019 20:00:00 22,4 16,4 13 7 21 11 SE
22.06.2019 19:00:00 22,8 16,6 15 8 22 12 SSE
22.06.2019 18:00:00 23,1 17,1 15 8 22 12 SE
22.06.2019 17:00:00 21,7 16,9 16 9 21 12 SE
22.06.2019 16:00:00 20,9 16,5 15 8 23 12 SE
22.06.2019 15:00:00 20,4 16,0 19 10 24 13 SE
22.06.2019 14:00:00 19,2 15,1 14 8 23 13 SE
22.06.2019 13:00:00 18,5 14,0 10 6 17 9 SE
22.06.2019 12:00:00 18,1 13,8 7 4 18 10 SE
22.06.2019 11:00:00 17,0 13,3 9 5 21 12 SE
22.06.2019 10:00:00 15,8 12,0 10 6 30 16 SE
22.06.2019 09:00:00 14,9 11,9 19 11 - - SE
22.06.2019 08:00:00 13,7 10,9 17 9 22 12 SSE
22.06.2019 07:00:00 11,8 9,7 17 9 22 12 S
22.06.2019 06:00:00 11,7 10,0 12 6 17 9 S
22.06.2019 05:00:00 11,7 10,1 12 6 20 11 S
22.06.2019 04:00:00 11,7 10,6 13 7 18 10 S
22.06.2019 03:00:00 11,8 10,7 12 6 16 9 S
22.06.2019 02:00:00 12,2 10,9 10 6 16 9 S
22.06.2019 01:00:00 12,4 11,1 12 6 15 8 S
22.06.2019 00:00:00 12,6 11,2 6 4 9 5 SSW
21.06.2019 23:00:00 13,7 11,4 4 2 8 4 SSW
21.06.2019 22:00:00 15,6 11,4 2 1 10 6 NNW
21.06.2019 21:00:00 18,1 11,9 8 5 12 6 NNW
21.06.2019 20:00:00 18,0 12,0 10 6 17 9 NW
21.06.2019 19:00:00 17,3 12,0 12 6 18 10 NW
21.06.2019 18:00:00 17,3 12,0 14 8 22 12 NW
21.06.2019 17:00:00 17,0 11,5 18 10 24 13 NW
21.06.2019 16:00:00 16,6 12,4 19 11 27 14 NW
21.06.2019 15:00:00 16,3 12,1 20 11 27 14 NW
21.06.2019 14:00:00 16,3 12,8 16 9 20 11 NW
21.06.2019 13:00:00 16,6 12,8 12 6 15 8 NW
21.06.2019 12:00:00 15,5 11,9 7 4 13 7 NW
21.06.2019 11:00:00 14,9 12,2 8 5 18 10 NNW
21.06.2019 10:00:00 14,4 12,8 11 6 16 9 NW
21.06.2019 09:00:00 12,9 12,1 8 4 18 10 WNW
21.06.2019 08:00:00 12,5 11,9 7 4 15 8 S
21.06.2019 07:00:00 12,8 12,0 8 5 12 7 S
21.06.2019 06:00:00 13,1 12,3 4 2 9 5 S
21.06.2019 05:00:00 13,1 12,3 5 3 12 7 S
21.06.2019 04:00:00 13,4 12,5 8 4 14 8 S
21.06.2019 03:00:00 14,3 13,0 7 4 17 9 NE
21.06.2019 02:00:00 15,0 13,7 10 5 19 10 NNE
21.06.2019 01:00:00 15,6 13,1 16 8 22 12 N
21.06.2019 00:00:00 15,4 13,4 16 9 23 12 N
20.06.2019 23:00:00 15,9 14,3 16 9 23 13 N
20.06.2019 22:00:00 15,5 14,0 19 11 24 13 N
20.06.2019 21:00:00 16,6 14,4 9 5 16 9 N
20.06.2019 20:00:00 17,5 14,0 10 5 13 7 N
20.06.2019 19:00:00 17,4 14,3 6 3 12 7 N
20.06.2019 18:00:00 18,4 14,5 6 3 11 6 NNE
20.06.2019 17:00:00 17,2 14,5 6 3 12 7 NNE
20.06.2019 16:00:00 17,0 14,8 6 3 11 6 NNE
20.06.2019 15:00:00 17,7 15,1 6 3 9 5 WSW
20.06.2019 14:00:00 17,6 15,4 1 1 4 2 WSW
20.06.2019 13:00:00 16,8 14,8 4 2 6 3 WSW
20.06.2019 12:00:00 16,9 15,1 0 0 5 3 WSW
20.06.2019 11:00:00 16,7 15,4 2 1 5 3 WSW
20.06.2019 10:00:00 15,6 14,8 1 0 7 4 WSW
20.06.2019 09:00:00 14,2 13,6 1 0 14 8 WSW
20.06.2019 08:00:00 13,9 13,3 11 6 26 14 W
20.06.2019 07:00:00 15,0 14,2 8 4 21 11 NW
20.06.2019 06:00:00 15,6 14,8 17 9 25 13 NNW
20.06.2019 05:00:00 15,7 14,9 10 5 29 16 WNW
20.06.2019 04:00:00 15,7 14,9 20 11 30 16 NW
20.06.2019 03:00:00 15,6 14,8 24 13 31 17 NW
20.06.2019 02:00:00 15,9 15,1 25 14 41 22 NW
20.06.2019 01:00:00 16,2 14,7 23 12 35 19 NW
20.06.2019 00:00:00 16,4 14,9 23 12 34 18 NW
19.06.2019 23:00:00 16,7 14,9 22 12 29 15 NW
19.06.2019 22:00:00 17,5 15,0 5 3 8 4 E
19.06.2019 21:00:00 18,0 14,5 0 0 5 3 N
19.06.2019 20:00:00 19,1 14,6 1 0 9 5 E
19.06.2019 19:00:00 20,6 15,2 3 1 13 7 E
19.06.2019 18:00:00 20,9 15,4 4 2 13 7 NE
19.06.2019 17:00:00 21,0 15,3 5 3 13 7 NE
19.06.2019 16:00:00 - - - - - - -
19.06.2019 15:00:00 - - - - - - -
19.06.2019 14:00:00 19,1 14,4 3 2 13 7 WNW
19.06.2019 13:00:00 - - - - - - -
19.06.2019 12:00:00 18,3 16,1 1 0 14 7 E
19.06.2019 11:00:00 - - - - - - -
19.06.2019 10:00:00 - - - - - - -
19.06.2019 09:00:00 - - - - - - -
19.06.2019 08:00:00 - - - - - - -
19.06.2019 07:00:00 - - - - - - -
19.06.2019 06:00:00 - - - - - - -
19.06.2019 05:00:00 - - - - - - -
19.06.2019 04:00:00 - - - - - - -
19.06.2019 03:00:00 - - - - - - -
19.06.2019 02:00:00 - - - - - - -
19.06.2019 01:00:00 - - - - - - -
19.06.2019 00:00:00 - - - - - - -
18.06.2019 23:00:00 - - - - - - -
18.06.2019 22:00:00 - - - - - - -
18.06.2019 21:00:00 - - - - - - -
18.06.2019 20:00:00 - - - - - - -
18.06.2019 19:00:00 15,9 14,9 59 32 74 40 NW
18.06.2019 18:00:00 16,6 15,6 57 31 70 38 NW
18.06.2019 17:00:00 19,9 16,2 19 10 39 21 WNW
18.06.2019 16:00:00 23,7 15,2 16 9 28 15 SSE

tt = temperature
td = dewpoint
ff = wind speed
fx = gusts
dd = wind direction

Next stations